sensor_id;sensor_type;location;lat;lon;timestamp;P1;durP1;ratioP1;P2;durP2;ratioP2
11907;SDS011;6014;47.690;9.130;2022-08-19T00:00:27;5.82;;;3.50;;
11907;SDS011;6014;47.690;9.130;2022-08-19T00:02:55;5.80;;;3.70;;
11907;SDS011;6014;47.690;9.130;2022-08-19T00:05:24;5.72;;;3.72;;
11907;SDS011;6014;47.690;9.130;2022-08-19T00:07:52;6.60;;;3.70;;
11907;SDS011;6014;47.690;9.130;2022-08-19T00:10:22;4.85;;;3.22;;
11907;SDS011;6014;47.690;9.130;2022-08-19T00:12:51;6.03;;;3.30;;
11907;SDS011;6014;47.690;9.130;2022-08-19T00:15:20;5.35;;;3.60;;
11907;SDS011;6014;47.690;9.130;2022-08-19T00:17:49;5.28;;;3.60;;
11907;SDS011;6014;47.690;9.130;2022-08-19T00:20:19;6.07;;;3.30;;
11907;SDS011;6014;47.690;9.130;2022-08-19T00:22:50;5.30;;;3.30;;
11907;SDS011;6014;47.690;9.130;2022-08-19T00:25:21;5.90;;;3.58;;
11907;SDS011;6014;47.690;9.130;2022-08-19T00:27:56;6.25;;;3.70;;
11907;SDS011;6014;47.690;9.130;2022-08-19T00:30:25;5.72;;;3.63;;
11907;SDS011;6014;47.690;9.130;2022-08-19T00:32:53;5.68;;;3.60;;
11907;SDS011;6014;47.690;9.130;2022-08-19T00:35:22;5.47;;;3.58;;
11907;SDS011;6014;47.690;9.130;2022-08-19T00:37:54;6.75;;;4.00;;
11907;SDS011;6014;47.690;9.130;2022-08-19T00:40:23;5.15;;;3.63;;
11907;SDS011;6014;47.690;9.130;2022-08-19T00:42:53;6.00;;;3.55;;
11907;SDS011;6014;47.690;9.130;2022-08-19T00:45:22;6.68;;;3.50;;
11907;SDS011;6014;47.690;9.130;2022-08-19T00:47:52;7.53;;;3.42;;
11907;SDS011;6014;47.690;9.130;2022-08-19T00:50:20;5.53;;;3.97;;
11907;SDS011;6014;47.690;9.130;2022-08-19T00:52:49;7.18;;;3.70;;
11907;SDS011;6014;47.690;9.130;2022-08-19T00:55:22;5.95;;;3.88;;
11907;SDS011;6014;47.690;9.130;2022-08-19T00:57:55;6.80;;;3.83;;
11907;SDS011;6014;47.690;9.130;2022-08-19T01:00:27;6.22;;;3.88;;
11907;SDS011;6014;47.690;9.130;2022-08-19T01:02:56;5.50;;;3.63;;
11907;SDS011;6014;47.690;9.130;2022-08-19T01:05:25;5.50;;;3.80;;
11907;SDS011;6014;47.690;9.130;2022-08-19T01:07:56;6.28;;;4.00;;
11907;SDS011;6014;47.690;9.130;2022-08-19T01:10:29;5.63;;;3.90;;
11907;SDS011;6014;47.690;9.130;2022-08-19T01:13:03;5.95;;;4.05;;
11907;SDS011;6014;47.690;9.130;2022-08-19T01:15:32;5.57;;;3.65;;
11907;SDS011;6014;47.690;9.130;2022-08-19T01:18:04;6.53;;;4.03;;
11907;SDS011;6014;47.690;9.130;2022-08-19T01:20:34;7.82;;;4.30;;
11907;SDS011;6014;47.690;9.130;2022-08-19T01:23:06;7.50;;;3.97;;
11907;SDS011;6014;47.690;9.130;2022-08-19T01:25:38;6.70;;;4.32;;
11907;SDS011;6014;47.690;9.130;2022-08-19T01:28:15;6.28;;;4.55;;
11907;SDS011;6014;47.690;9.130;2022-08-19T01:30:59;6.50;;;4.00;;
11907;SDS011;6014;47.690;9.130;2022-08-19T01:33:33;6.78;;;4.55;;
11907;SDS011;6014;47.690;9.130;2022-08-19T01:36:06;6.97;;;4.35;;
11907;SDS011;6014;47.690;9.130;2022-08-19T01:38:38;5.90;;;4.00;;
11907;SDS011;6014;47.690;9.130;2022-08-19T01:41:10;6.88;;;4.55;;
11907;SDS011;6014;47.690;9.130;2022-08-19T01:43:39;8.13;;;3.72;;
11907;SDS011;6014;47.690;9.130;2022-08-19T01:46:27;6.97;;;3.85;;
11907;SDS011;6014;47.690;9.130;2022-08-19T01:48:56;6.53;;;4.50;;
11907;SDS011;6014;47.690;9.130;2022-08-19T01:51:25;5.90;;;4.03;;
11907;SDS011;6014;47.690;9.130;2022-08-19T01:53:55;6.38;;;4.50;;
11907;SDS011;6014;47.690;9.130;2022-08-19T01:56:24;8.82;;;4.95;;
11907;SDS011;6014;47.690;9.130;2022-08-19T01:58:53;7.82;;;5.05;;
11907;SDS011;6014;47.690;9.130;2022-08-19T02:01:23;6.97;;;4.95;;
11907;SDS011;6014;47.690;9.130;2022-08-19T02:03:57;7.22;;;4.82;;
11907;SDS011;6014;47.690;9.130;2022-08-19T02:06:27;6.95;;;5.28;;
11907;SDS011;6014;47.690;9.130;2022-08-19T02:08:57;7.38;;;5.68;;
11907;SDS011;6014;47.690;9.130;2022-08-19T02:11:27;8.88;;;5.40;;
11907;SDS011;6014;47.690;9.130;2022-08-19T02:13:58;8.73;;;5.85;;
11907;SDS011;6014;47.690;9.130;2022-08-19T02:16:28;7.47;;;5.43;;
11907;SDS011;6014;47.690;9.130;2022-08-19T02:18:56;7.07;;;5.25;;
11907;SDS011;6014;47.690;9.130;2022-08-19T02:21:27;7.80;;;5.55;;
11907;SDS011;6014;47.690;9.130;2022-08-19T02:24:00;8.52;;;6.05;;
11907;SDS011;6014;47.690;9.130;2022-08-19T02:26:28;8.40;;;5.63;;
11907;SDS011;6014;47.690;9.130;2022-08-19T02:28:57;9.45;;;5.93;;
11907;SDS011;6014;47.690;9.130;2022-08-19T02:31:26;8.48;;;6.55;;
11907;SDS011;6014;47.690;9.130;2022-08-19T02:33:55;8.25;;;6.43;;
11907;SDS011;6014;47.690;9.130;2022-08-19T02:36:24;9.25;;;6.57;;
11907;SDS011;6014;47.690;9.130;2022-08-19T02:38:55;9.00;;;7.30;;
11907;SDS011;6014;47.690;9.130;2022-08-19T02:41:25;8.50;;;6.25;;
11907;SDS011;6014;47.690;9.130;2022-08-19T02:43:55;9.32;;;5.60;;
11907;SDS011;6014;47.690;9.130;2022-08-19T02:46:46;10.30;;;7.97;;
11907;SDS011;6014;47.690;9.130;2022-08-19T02:49:18;11.45;;;7.20;;
11907;SDS011;6014;47.690;9.130;2022-08-19T02:51:46;10.65;;;7.82;;
11907;SDS011;6014;47.690;9.130;2022-08-19T02:54:15;11.20;;;8.02;;
11907;SDS011;6014;47.690;9.130;2022-08-19T02:56:44;11.68;;;8.85;;
11907;SDS011;6014;47.690;9.130;2022-08-19T02:59:13;13.65;;;9.43;;
11907;SDS011;6014;47.690;9.130;2022-08-19T03:01:42;10.82;;;8.55;;
11907;SDS011;6014;47.690;9.130;2022-08-19T03:04:11;12.40;;;9.00;;
11907;SDS011;6014;47.690;9.130;2022-08-19T03:06:42;11.45;;;8.55;;
11907;SDS011;6014;47.690;9.130;2022-08-19T03:09:12;12.82;;;9.40;;
11907;SDS011;6014;47.690;9.130;2022-08-19T03:11:40;13.02;;;9.70;;
11907;SDS011;6014;47.690;9.130;2022-08-19T03:14:10;12.77;;;10.23;;
11907;SDS011;6014;47.690;9.130;2022-08-19T03:16:40;11.43;;;9.35;;
11907;SDS011;6014;47.690;9.130;2022-08-19T03:19:10;12.90;;;10.13;;
11907;SDS011;6014;47.690;9.130;2022-08-19T03:21:39;13.05;;;10.10;;
11907;SDS011;6014;47.690;9.130;2022-08-19T03:24:08;12.00;;;9.45;;
11907;SDS011;6014;47.690;9.130;2022-08-19T03:26:38;12.95;;;9.68;;
11907;SDS011;6014;47.690;9.130;2022-08-19T03:29:11;12.98;;;9.10;;
11907;SDS011;6014;47.690;9.130;2022-08-19T03:31:51;12.40;;;9.68;;
11907;SDS011;6014;47.690;9.130;2022-08-19T03:34:19;12.32;;;8.95;;
11907;SDS011;6014;47.690;9.130;2022-08-19T03:36:52;11.48;;;8.88;;
11907;SDS011;6014;47.690;9.130;2022-08-19T03:39:22;12.93;;;8.70;;
11907;SDS011;6014;47.690;9.130;2022-08-19T03:41:52;10.93;;;8.63;;
11907;SDS011;6014;47.690;9.130;2022-08-19T03:44:46;10.15;;;7.82;;
11907;SDS011;6014;47.690;9.130;2022-08-19T03:47:14;11.43;;;8.98;;
11907;SDS011;6014;47.690;9.130;2022-08-19T03:49:43;11.90;;;8.93;;
11907;SDS011;6014;47.690;9.130;2022-08-19T03:52:12;11.10;;;8.45;;
11907;SDS011;6014;47.690;9.130;2022-08-19T03:54:41;12.13;;;8.63;;
11907;SDS011;6014;47.690;9.130;2022-08-19T03:57:10;11.57;;;9.52;;
11907;SDS011;6014;47.690;9.130;2022-08-19T03:59:38;12.60;;;9.32;;
11907;SDS011;6014;47.690;9.130;2022-08-19T04:02:09;11.90;;;8.77;;
11907;SDS011;6014;47.690;9.130;2022-08-19T04:04:39;12.00;;;9.60;;
11907;SDS011;6014;47.690;9.130;2022-08-19T04:07:11;12.02;;;9.52;;
11907;SDS011;6014;47.690;9.130;2022-08-19T04:09:47;12.95;;;9.48;;
11907;SDS011;6014;47.690;9.130;2022-08-19T04:12:18;12.90;;;10.07;;
11907;SDS011;6014;47.690;9.130;2022-08-19T04:14:47;14.23;;;9.93;;
11907;SDS011;6014;47.690;9.130;2022-08-19T04:17:16;13.73;;;10.32;;
11907;SDS011;6014;47.690;9.130;2022-08-19T04:19:46;13.50;;;10.07;;
11907;SDS011;6014;47.690;9.130;2022-08-19T04:22:14;12.80;;;10.40;;
11907;SDS011;6014;47.690;9.130;2022-08-19T04:24:42;12.80;;;9.95;;
11907;SDS011;6014;47.690;9.130;2022-08-19T04:27:11;14.45;;;10.52;;
11907;SDS011;6014;47.690;9.130;2022-08-19T04:29:39;13.10;;;10.65;;
11907;SDS011;6014;47.690;9.130;2022-08-19T04:32:10;14.20;;;10.98;;
11907;SDS011;6014;47.690;9.130;2022-08-19T04:34:42;16.05;;;11.07;;
11907;SDS011;6014;47.690;9.130;2022-08-19T04:37:31;17.15;;;12.68;;
11907;SDS011;6014;47.690;9.130;2022-08-19T04:40:01;15.93;;;11.52;;
11907;SDS011;6014;47.690;9.130;2022-08-19T04:42:49;18.48;;;12.82;;
11907;SDS011;6014;47.690;9.130;2022-08-19T04:45:17;15.05;;;11.65;;
11907;SDS011;6014;47.690;9.130;2022-08-19T04:47:48;16.38;;;12.13;;
11907;SDS011;6014;47.690;9.130;2022-08-19T04:50:40;16.17;;;12.10;;
11907;SDS011;6014;47.690;9.130;2022-08-19T04:53:10;16.17;;;13.00;;
11907;SDS011;6014;47.690;9.130;2022-08-19T04:55:39;17.52;;;12.23;;
11907;SDS011;6014;47.690;9.130;2022-08-19T04:58:09;15.15;;;11.40;;
11907;SDS011;6014;47.690;9.130;2022-08-19T05:00:37;14.63;;;11.60;;
11907;SDS011;6014;47.690;9.130;2022-08-19T05:03:07;17.92;;;12.13;;
11907;SDS011;6014;47.690;9.130;2022-08-19T05:05:37;16.38;;;11.98;;
11907;SDS011;6014;47.690;9.130;2022-08-19T05:08:12;16.33;;;12.23;;
11907;SDS011;6014;47.690;9.130;2022-08-19T05:10:56;17.55;;;13.27;;
11907;SDS011;6014;47.690;9.130;2022-08-19T05:13:24;19.05;;;13.30;;
11907;SDS011;6014;47.690;9.130;2022-08-19T05:15:53;16.55;;;11.85;;
11907;SDS011;6014;47.690;9.130;2022-08-19T05:18:22;18.67;;;12.90;;
11907;SDS011;6014;47.690;9.130;2022-08-19T05:21:09;19.98;;;12.95;;
11907;SDS011;6014;47.690;9.130;2022-08-19T05:23:58;15.85;;;12.35;;
11907;SDS011;6014;47.690;9.130;2022-08-19T05:26:26;17.42;;;13.73;;
11907;SDS011;6014;47.690;9.130;2022-08-19T05:28:55;18.02;;;12.82;;
11907;SDS011;6014;47.690;9.130;2022-08-19T05:31:23;21.48;;;13.93;;
11907;SDS011;6014;47.690;9.130;2022-08-19T05:33:51;16.77;;;11.90;;
11907;SDS011;6014;47.690;9.130;2022-08-19T05:36:19;17.55;;;12.88;;
11907;SDS011;6014;47.690;9.130;2022-08-19T05:38:47;18.38;;;13.57;;
11907;SDS011;6014;47.690;9.130;2022-08-19T05:41:17;16.70;;;12.52;;
11907;SDS011;6014;47.690;9.130;2022-08-19T05:43:46;16.73;;;12.75;;
11907;SDS011;6014;47.690;9.130;2022-08-19T05:46:17;16.67;;;12.23;;
11907;SDS011;6014;47.690;9.130;2022-08-19T05:48:53;16.70;;;12.40;;
11907;SDS011;6014;47.690;9.130;2022-08-19T05:51:22;16.77;;;12.48;;
11907;SDS011;6014;47.690;9.130;2022-08-19T05:53:54;15.93;;;11.50;;
11907;SDS011;6014;47.690;9.130;2022-08-19T05:56:24;17.27;;;13.20;;
11907;SDS011;6014;47.690;9.130;2022-08-19T05:58:53;16.67;;;13.13;;
11907;SDS011;6014;47.690;9.130;2022-08-19T06:01:24;15.98;;;12.93;;
11907;SDS011;6014;47.690;9.130;2022-08-19T06:03:53;18.17;;;12.50;;
11907;SDS011;6014;47.690;9.130;2022-08-19T06:06:21;20.00;;;14.00;;
11907;SDS011;6014;47.690;9.130;2022-08-19T06:08:49;18.67;;;12.98;;
11907;SDS011;6014;47.690;9.130;2022-08-19T06:11:19;17.70;;;12.73;;
11907;SDS011;6014;47.690;9.130;2022-08-19T06:13:53;19.10;;;13.48;;
11907;SDS011;6014;47.690;9.130;2022-08-19T06:16:25;19.27;;;13.75;;
11907;SDS011;6014;47.690;9.130;2022-08-19T06:18:55;18.08;;;13.73;;
11907;SDS011;6014;47.690;9.130;2022-08-19T06:21:25;18.90;;;14.35;;
11907;SDS011;6014;47.690;9.130;2022-08-19T06:23:55;19.73;;;14.32;;
11907;SDS011;6014;47.690;9.130;2022-08-19T06:26:24;19.30;;;14.45;;
11907;SDS011;6014;47.690;9.130;2022-08-19T06:28:55;18.58;;;14.18;;
11907;SDS011;6014;47.690;9.130;2022-08-19T06:31:24;19.98;;;14.23;;
11907;SDS011;6014;47.690;9.130;2022-08-19T06:33:54;21.27;;;15.52;;
11907;SDS011;6014;47.690;9.130;2022-08-19T06:36:23;20.75;;;14.88;;
11907;SDS011;6014;47.690;9.130;2022-08-19T06:38:58;18.92;;;15.38;;
11907;SDS011;6014;47.690;9.130;2022-08-19T06:41:27;19.70;;;15.35;;
11907;SDS011;6014;47.690;9.130;2022-08-19T06:43:58;21.05;;;15.32;;
11907;SDS011;6014;47.690;9.130;2022-08-19T06:46:26;19.27;;;15.27;;
11907;SDS011;6014;47.690;9.130;2022-08-19T06:48:58;19.30;;;15.10;;
11907;SDS011;6014;47.690;9.130;2022-08-19T06:51:28;21.00;;;15.23;;
11907;SDS011;6014;47.690;9.130;2022-08-19T06:53:57;22.25;;;16.63;;
11907;SDS011;6014;47.690;9.130;2022-08-19T06:56:27;20.42;;;16.90;;
11907;SDS011;6014;47.690;9.130;2022-08-19T06:59:01;22.83;;;15.45;;
11907;SDS011;6014;47.690;9.130;2022-08-19T07:01:33;21.20;;;16.17;;
11907;SDS011;6014;47.690;9.130;2022-08-19T07:04:04;22.17;;;15.43;;
11907;SDS011;6014;47.690;9.130;2022-08-19T07:06:37;22.27;;;16.52;;
11907;SDS011;6014;47.690;9.130;2022-08-19T07:09:11;20.80;;;15.82;;
11907;SDS011;6014;47.690;9.130;2022-08-19T07:11:44;22.42;;;16.60;;
11907;SDS011;6014;47.690;9.130;2022-08-19T07:14:14;19.85;;;15.43;;
11907;SDS011;6014;47.690;9.130;2022-08-19T07:16:46;19.30;;;15.70;;
11907;SDS011;6014;47.690;9.130;2022-08-19T07:19:15;19.45;;;16.48;;
11907;SDS011;6014;47.690;9.130;2022-08-19T07:21:45;20.60;;;15.18;;
11907;SDS011;6014;47.690;9.130;2022-08-19T07:24:14;19.27;;;14.25;;
11907;SDS011;6014;47.690;9.130;2022-08-19T07:26:43;21.23;;;16.92;;
11907;SDS011;6014;47.690;9.130;2022-08-19T07:29:18;20.13;;;15.60;;
11907;SDS011;6014;47.690;9.130;2022-08-19T07:31:54;20.42;;;14.80;;
11907;SDS011;6014;47.690;9.130;2022-08-19T07:34:26;20.48;;;15.38;;
11907;SDS011;6014;47.690;9.130;2022-08-19T07:36:56;17.60;;;14.52;;
11907;SDS011;6014;47.690;9.130;2022-08-19T07:39:26;20.55;;;16.10;;
11907;SDS011;6014;47.690;9.130;2022-08-19T07:41:56;21.67;;;16.15;;
11907;SDS011;6014;47.690;9.130;2022-08-19T07:44:27;20.75;;;15.05;;
11907;SDS011;6014;47.690;9.130;2022-08-19T07:46:56;22.52;;;15.60;;
11907;SDS011;6014;47.690;9.130;2022-08-19T07:49:26;21.05;;;15.55;;
11907;SDS011;6014;47.690;9.130;2022-08-19T07:51:56;21.83;;;15.50;;
11907;SDS011;6014;47.690;9.130;2022-08-19T07:54:28;22.35;;;15.95;;
11907;SDS011;6014;47.690;9.130;2022-08-19T07:57:00;23.58;;;16.75;;
11907;SDS011;6014;47.690;9.130;2022-08-19T07:59:31;19.95;;;16.20;;
11907;SDS011;6014;47.690;9.130;2022-08-19T08:02:00;20.98;;;15.43;;
11907;SDS011;6014;47.690;9.130;2022-08-19T08:04:29;21.30;;;16.00;;
11907;SDS011;6014;47.690;9.130;2022-08-19T08:07:15;18.48;;;14.23;;
11907;SDS011;6014;47.690;9.130;2022-08-19T08:10:02;21.58;;;16.05;;
11907;SDS011;6014;47.690;9.130;2022-08-19T08:12:45;19.10;;;14.75;;
11907;SDS011;6014;47.690;9.130;2022-08-19T08:15:35;20.73;;;14.80;;
11907;SDS011;6014;47.690;9.130;2022-08-19T08:18:08;19.92;;;14.35;;
11907;SDS011;6014;47.690;9.130;2022-08-19T08:20:37;19.40;;;15.77;;
11907;SDS011;6014;47.690;9.130;2022-08-19T08:23:06;22.40;;;15.68;;
11907;SDS011;6014;47.690;9.130;2022-08-19T08:25:49;17.77;;;13.55;;
11907;SDS011;6014;47.690;9.130;2022-08-19T08:28:18;17.42;;;12.63;;
11907;SDS011;6014;47.690;9.130;2022-08-19T08:30:48;17.38;;;13.38;;
11907;SDS011;6014;47.690;9.130;2022-08-19T08:33:18;17.55;;;13.50;;
11907;SDS011;6014;47.690;9.130;2022-08-19T08:36:00;18.05;;;13.98;;
11907;SDS011;6014;47.690;9.130;2022-08-19T08:38:29;17.60;;;14.77;;
11907;SDS011;6014;47.690;9.130;2022-08-19T08:41:06;17.92;;;13.77;;
11907;SDS011;6014;47.690;9.130;2022-08-19T08:43:38;17.70;;;14.38;;
11907;SDS011;6014;47.690;9.130;2022-08-19T08:46:10;22.08;;;15.27;;
11907;SDS011;6014;47.690;9.130;2022-08-19T08:48:57;22.67;;;15.80;;
11907;SDS011;6014;47.690;9.130;2022-08-19T08:51:29;21.63;;;15.10;;
11907;SDS011;6014;47.690;9.130;2022-08-19T08:54:01;22.80;;;15.63;;
11907;SDS011;6014;47.690;9.130;2022-08-19T08:56:30;22.73;;;16.25;;
11907;SDS011;6014;47.690;9.130;2022-08-19T08:59:00;22.98;;;15.63;;
11907;SDS011;6014;47.690;9.130;2022-08-19T09:01:31;22.35;;;15.90;;
11907;SDS011;6014;47.690;9.130;2022-08-19T09:04:00;25.02;;;17.02;;
11907;SDS011;6014;47.690;9.130;2022-08-19T09:06:32;21.40;;;15.27;;
11907;SDS011;6014;47.690;9.130;2022-08-19T09:09:09;27.10;;;17.95;;
11907;SDS011;6014;47.690;9.130;2022-08-19T09:11:45;22.27;;;15.93;;
11907;SDS011;6014;47.690;9.130;2022-08-19T09:14:19;22.35;;;17.05;;
11907;SDS011;6014;47.690;9.130;2022-08-19T09:17:12;23.67;;;16.77;;
11907;SDS011;6014;47.690;9.130;2022-08-19T09:19:52;21.65;;;16.30;;
11907;SDS011;6014;47.690;9.130;2022-08-19T09:22:21;19.95;;;14.73;;
11907;SDS011;6014;47.690;9.130;2022-08-19T09:24:52;21.92;;;15.65;;
11907;SDS011;6014;47.690;9.130;2022-08-19T09:27:22;21.95;;;17.02;;
11907;SDS011;6014;47.690;9.130;2022-08-19T09:30:10;23.92;;;16.77;;
11907;SDS011;6014;47.690;9.130;2022-08-19T09:32:40;22.20;;;16.20;;
11907;SDS011;6014;47.690;9.130;2022-08-19T09:35:09;22.75;;;16.52;;
11907;SDS011;6014;47.690;9.130;2022-08-19T09:37:38;20.40;;;14.55;;
11907;SDS011;6014;47.690;9.130;2022-08-19T09:40:09;21.52;;;16.00;;
11907;SDS011;6014;47.690;9.130;2022-08-19T09:42:38;20.55;;;14.20;;
11907;SDS011;6014;47.690;9.130;2022-08-19T09:45:18;21.08;;;15.63;;
11907;SDS011;6014;47.690;9.130;2022-08-19T09:47:50;20.48;;;15.50;;
11907;SDS011;6014;47.690;9.130;2022-08-19T09:50:21;21.92;;;15.68;;
11907;SDS011;6014;47.690;9.130;2022-08-19T09:52:50;18.83;;;14.13;;
11907;SDS011;6014;47.690;9.130;2022-08-19T09:55:23;19.73;;;13.63;;
11907;SDS011;6014;47.690;9.130;2022-08-19T09:57:57;17.83;;;13.38;;
11907;SDS011;6014;47.690;9.130;2022-08-19T10:00:25;16.65;;;12.93;;
11907;SDS011;6014;47.690;9.130;2022-08-19T10:02:55;19.05;;;13.80;;
11907;SDS011;6014;47.690;9.130;2022-08-19T10:05:24;21.60;;;13.60;;
11907;SDS011;6014;47.690;9.130;2022-08-19T10:08:14;27.83;;;14.80;;
11907;SDS011;6014;47.690;9.130;2022-08-19T10:10:43;18.55;;;13.85;;
11907;SDS011;6014;47.690;9.130;2022-08-19T10:13:13;18.67;;;13.23;;
11907;SDS011;6014;47.690;9.130;2022-08-19T10:15:42;19.05;;;12.55;;
11907;SDS011;6014;47.690;9.130;2022-08-19T10:18:16;20.30;;;14.10;;
11907;SDS011;6014;47.690;9.130;2022-08-19T10:20:45;17.58;;;12.32;;
11907;SDS011;6014;47.690;9.130;2022-08-19T10:23:18;20.13;;;13.05;;
11907;SDS011;6014;47.690;9.130;2022-08-19T10:25:47;17.25;;;12.13;;
11907;SDS011;6014;47.690;9.130;2022-08-19T10:28:16;17.13;;;11.93;;
11907;SDS011;6014;47.690;9.130;2022-08-19T10:30:45;20.48;;;13.60;;
11907;SDS011;6014;47.690;9.130;2022-08-19T10:33:15;19.05;;;13.85;;
11907;SDS011;6014;47.690;9.130;2022-08-19T10:36:05;19.73;;;13.55;;
11907;SDS011;6014;47.690;9.130;2022-08-19T10:38:34;16.25;;;12.30;;
11907;SDS011;6014;47.690;9.130;2022-08-19T10:41:07;17.40;;;12.00;;
11907;SDS011;6014;47.690;9.130;2022-08-19T10:43:36;21.88;;;15.60;;
11907;SDS011;6014;47.690;9.130;2022-08-19T10:46:06;16.75;;;12.10;;
11907;SDS011;6014;47.690;9.130;2022-08-19T10:48:40;15.82;;;11.63;;
11907;SDS011;6014;47.690;9.130;2022-08-19T10:51:09;16.90;;;12.18;;
11907;SDS011;6014;47.690;9.130;2022-08-19T10:54:13;18.42;;;14.23;;
11907;SDS011;6014;47.690;9.130;2022-08-19T10:56:42;18.52;;;14.23;;
11907;SDS011;6014;47.690;9.130;2022-08-19T10:59:19;17.50;;;12.73;;
11907;SDS011;6014;47.690;9.130;2022-08-19T11:01:52;17.45;;;13.18;;
11907;SDS011;6014;47.690;9.130;2022-08-19T11:04:24;18.83;;;14.35;;
11907;SDS011;6014;47.690;9.130;2022-08-19T11:06:55;19.90;;;13.77;;
11907;SDS011;6014;47.690;9.130;2022-08-19T11:09:24;18.73;;;13.23;;
11907;SDS011;6014;47.690;9.130;2022-08-19T11:11:59;19.15;;;14.10;;
11907;SDS011;6014;47.690;9.130;2022-08-19T11:14:30;18.58;;;13.65;;
11907;SDS011;6014;47.690;9.130;2022-08-19T11:16:59;20.98;;;15.18;;
11907;SDS011;6014;47.690;9.130;2022-08-19T11:19:29;23.08;;;16.38;;
11907;SDS011;6014;47.690;9.130;2022-08-19T11:21:58;25.25;;;16.70;;
11907;SDS011;6014;47.690;9.130;2022-08-19T11:24:29;24.10;;;15.45;;
11907;SDS011;6014;47.690;9.130;2022-08-19T11:27:03;27.80;;;18.27;;
11907;SDS011;6014;47.690;9.130;2022-08-19T11:29:34;26.80;;;18.58;;
11907;SDS011;6014;47.690;9.130;2022-08-19T11:32:03;25.38;;;17.25;;
11907;SDS011;6014;47.690;9.130;2022-08-19T11:34:34;24.92;;;18.88;;
11907;SDS011;6014;47.690;9.130;2022-08-19T11:37:03;26.10;;;19.17;;
11907;SDS011;6014;47.690;9.130;2022-08-19T11:39:32;27.05;;;19.27;;
11907;SDS011;6014;47.690;9.130;2022-08-19T11:42:03;26.20;;;16.85;;
11907;SDS011;6014;47.690;9.130;2022-08-19T11:44:53;24.63;;;17.02;;
11907;SDS011;6014;47.690;9.130;2022-08-19T11:47:22;26.25;;;18.35;;
11907;SDS011;6014;47.690;9.130;2022-08-19T11:49:51;23.05;;;17.40;;
11907;SDS011;6014;47.690;9.130;2022-08-19T11:52:20;23.00;;;16.17;;
11907;SDS011;6014;47.690;9.130;2022-08-19T11:54:48;25.35;;;19.05;;
11907;SDS011;6014;47.690;9.130;2022-08-19T11:57:17;24.00;;;17.00;;
11907;SDS011;6014;47.690;9.130;2022-08-19T11:59:49;20.05;;;15.23;;
11907;SDS011;6014;47.690;9.130;2022-08-19T12:02:18;21.50;;;15.32;;
11907;SDS011;6014;47.690;9.130;2022-08-19T12:04:47;21.90;;;15.25;;
11907;SDS011;6014;47.690;9.130;2022-08-19T12:07:17;21.10;;;14.10;;
11907;SDS011;6014;47.690;9.130;2022-08-19T12:09:46;20.65;;;15.43;;
11907;SDS011;6014;47.690;9.130;2022-08-19T12:12:15;20.70;;;15.50;;
11907;SDS011;6014;47.690;9.130;2022-08-19T12:14:44;20.77;;;15.07;;
11907;SDS011;6014;47.690;9.130;2022-08-19T12:17:12;20.90;;;15.93;;
11907;SDS011;6014;47.690;9.130;2022-08-19T12:19:41;23.05;;;16.35;;
11907;SDS011;6014;47.690;9.130;2022-08-19T12:22:12;21.63;;;15.82;;
11907;SDS011;6014;47.690;9.130;2022-08-19T12:24:42;21.52;;;15.82;;
11907;SDS011;6014;47.690;9.130;2022-08-19T12:27:10;22.20;;;16.65;;
11907;SDS011;6014;47.690;9.130;2022-08-19T12:29:57;21.00;;;14.65;;
11907;SDS011;6014;47.690;9.130;2022-08-19T12:32:26;18.48;;;14.25;;
11907;SDS011;6014;47.690;9.130;2022-08-19T12:34:55;18.92;;;15.00;;
11907;SDS011;6014;47.690;9.130;2022-08-19T12:37:23;22.10;;;15.90;;
11907;SDS011;6014;47.690;9.130;2022-08-19T12:39:54;21.48;;;14.77;;
11907;SDS011;6014;47.690;9.130;2022-08-19T12:42:22;27.60;;;17.08;;
11907;SDS011;6014;47.690;9.130;2022-08-19T12:44:51;22.23;;;15.75;;
11907;SDS011;6014;47.690;9.130;2022-08-19T12:47:19;20.67;;;16.23;;
11907;SDS011;6014;47.690;9.130;2022-08-19T12:49:48;22.88;;;16.35;;
11907;SDS011;6014;47.690;9.130;2022-08-19T12:52:21;22.83;;;16.63;;
11907;SDS011;6014;47.690;9.130;2022-08-19T12:54:52;19.85;;;15.10;;
11907;SDS011;6014;47.690;9.130;2022-08-19T12:57:22;20.85;;;15.93;;
11907;SDS011;6014;47.690;9.130;2022-08-19T12:59:58;23.58;;;17.15;;
11907;SDS011;6014;47.690;9.130;2022-08-19T13:02:30;21.10;;;16.52;;
11907;SDS011;6014;47.690;9.130;2022-08-19T13:05:04;22.05;;;16.83;;
11907;SDS011;6014;47.690;9.130;2022-08-19T13:07:34;21.77;;;17.55;;
11907;SDS011;6014;47.690;9.130;2022-08-19T13:10:04;21.23;;;16.83;;
11907;SDS011;6014;47.690;9.130;2022-08-19T13:12:35;22.80;;;17.63;;
11907;SDS011;6014;47.690;9.130;2022-08-19T13:15:05;21.13;;;17.08;;
11907;SDS011;6014;47.690;9.130;2022-08-19T13:17:36;25.95;;;20.08;;
11907;SDS011;6014;47.690;9.130;2022-08-19T13:20:05;20.75;;;17.45;;
11907;SDS011;6014;47.690;9.130;2022-08-19T13:22:34;24.85;;;17.40;;
11907;SDS011;6014;47.690;9.130;2022-08-19T13:25:03;25.13;;;17.08;;
11907;SDS011;6014;47.690;9.130;2022-08-19T13:27:33;22.92;;;17.75;;
11907;SDS011;6014;47.690;9.130;2022-08-19T13:30:03;23.40;;;18.88;;
11907;SDS011;6014;47.690;9.130;2022-08-19T13:32:50;25.13;;;19.45;;
11907;SDS011;6014;47.690;9.130;2022-08-19T13:35:36;25.40;;;19.42;;
11907;SDS011;6014;47.690;9.130;2022-08-19T13:38:05;23.60;;;18.83;;
11907;SDS011;6014;47.690;9.130;2022-08-19T13:40:37;25.27;;;18.75;;
11907;SDS011;6014;47.690;9.130;2022-08-19T13:43:07;27.75;;;21.05;;
11907;SDS011;6014;47.690;9.130;2022-08-19T13:45:44;24.13;;;18.58;;
11907;SDS011;6014;47.690;9.130;2022-08-19T13:48:13;25.30;;;19.17;;
11907;SDS011;6014;47.690;9.130;2022-08-19T13:50:44;24.83;;;19.15;;
11907;SDS011;6014;47.690;9.130;2022-08-19T13:53:14;25.75;;;20.10;;
11907;SDS011;6014;47.690;9.130;2022-08-19T13:55:43;24.77;;;18.20;;
11907;SDS011;6014;47.690;9.130;2022-08-19T13:58:12;24.67;;;19.17;;
11907;SDS011;6014;47.690;9.130;2022-08-19T14:00:42;24.50;;;18.25;;
11907;SDS011;6014;47.690;9.130;2022-08-19T14:03:13;26.70;;;19.23;;
11907;SDS011;6014;47.690;9.130;2022-08-19T14:05:41;26.98;;;18.13;;
11907;SDS011;6014;47.690;9.130;2022-08-19T14:08:10;24.27;;;18.92;;
11907;SDS011;6014;47.690;9.130;2022-08-19T14:10:40;26.55;;;20.88;;
11907;SDS011;6014;47.690;9.130;2022-08-19T14:13:13;27.00;;;19.63;;
11907;SDS011;6014;47.690;9.130;2022-08-19T14:15:42;27.58;;;20.27;;
11907;SDS011;6014;47.690;9.130;2022-08-19T14:18:12;30.15;;;23.00;;
11907;SDS011;6014;47.690;9.130;2022-08-19T14:20:41;26.63;;;20.83;;
11907;SDS011;6014;47.690;9.130;2022-08-19T14:23:10;30.63;;;22.92;;
11907;SDS011;6014;47.690;9.130;2022-08-19T14:25:42;27.45;;;21.10;;
11907;SDS011;6014;47.690;9.130;2022-08-19T14:28:11;27.55;;;20.70;;
11907;SDS011;6014;47.690;9.130;2022-08-19T14:30:39;23.70;;;19.88;;
11907;SDS011;6014;47.690;9.130;2022-08-19T14:33:14;27.50;;;21.77;;
11907;SDS011;6014;47.690;9.130;2022-08-19T14:35:43;27.40;;;20.27;;
11907;SDS011;6014;47.690;9.130;2022-08-19T14:38:14;27.83;;;20.30;;
11907;SDS011;6014;47.690;9.130;2022-08-19T14:40:49;27.20;;;20.80;;
11907;SDS011;6014;47.690;9.130;2022-08-19T14:43:20;26.38;;;21.67;;
11907;SDS011;6014;47.690;9.130;2022-08-19T14:45:48;27.08;;;22.50;;
11907;SDS011;6014;47.690;9.130;2022-08-19T14:48:19;25.95;;;20.88;;
11907;SDS011;6014;47.690;9.130;2022-08-19T14:50:54;26.35;;;21.38;;
11907;SDS011;6014;47.690;9.130;2022-08-19T14:53:22;26.20;;;20.55;;
11907;SDS011;6014;47.690;9.130;2022-08-19T14:55:51;25.90;;;20.02;;
11907;SDS011;6014;47.690;9.130;2022-08-19T14:58:20;27.83;;;21.95;;
11907;SDS011;6014;47.690;9.130;2022-08-19T15:00:55;27.27;;;22.73;;
11907;SDS011;6014;47.690;9.130;2022-08-19T15:03:27;28.08;;;21.70;;
11907;SDS011;6014;47.690;9.130;2022-08-19T15:05:58;26.38;;;21.85;;